createdAt,value
2022-10-20T00:01:17.076Z,5.07
2022-10-20T00:03:45.465Z,9.20
2022-10-20T00:06:20.684Z,11.52
2022-10-20T00:08:48.671Z,6.90
2022-10-20T00:11:18.716Z,3.92
2022-10-20T00:13:48.013Z,8.30
2022-10-20T00:16:15.791Z,6.65
2022-10-20T00:18:43.915Z,4.72
2022-10-20T00:21:15.306Z,10.98
2022-10-20T00:23:43.271Z,8.10
2022-10-20T00:26:16.813Z,10.93
2022-10-20T00:28:45.031Z,4.32
2022-10-20T00:31:13.186Z,2.95
2022-10-20T00:33:41.050Z,6.72
2022-10-20T00:36:11.302Z,5.65
2022-10-20T00:38:38.935Z,6.18
2022-10-20T00:41:06.896Z,7.03
2022-10-20T00:43:47.114Z,5.05
2022-10-20T00:46:18.096Z,7.20
2022-10-20T00:48:50.254Z,7.90
2022-10-20T00:51:22.102Z,9.40
2022-10-20T00:53:53.195Z,4.72
2022-10-20T00:56:21.463Z,4.45
2022-10-20T00:58:50.020Z,7.68
2022-10-20T01:01:18.496Z,8.48
2022-10-20T01:03:49.061Z,7.45
2022-10-20T01:06:19.030Z,6.00
2022-10-20T01:08:46.875Z,4.85
2022-10-20T01:11:28.108Z,8.77
2022-10-20T01:14:01.590Z,9.90
2022-10-20T01:16:57.928Z,6.38
2022-10-20T01:19:31.217Z,7.18
2022-10-20T01:22:19.840Z,4.40
2022-10-20T01:25:16.456Z,7.80
2022-10-20T01:27:51.074Z,8.48
2022-10-20T01:30:22.076Z,10.30
2022-10-20T01:32:55.272Z,4.97
2022-10-20T01:35:25.840Z,9.02
2022-10-20T01:38:20.285Z,8.77
2022-10-20T01:41:19.064Z,4.35
2022-10-20T01:43:48.477Z,7.95
2022-10-20T01:46:17.887Z,5.70
2022-10-20T01:48:47.327Z,7.13
2022-10-20T01:51:14.797Z,11.05
2022-10-20T01:53:42.204Z,11.45
2022-10-20T01:56:27.282Z,6.78
2022-10-20T01:59:00.771Z,4.72
2022-10-20T02:01:57.838Z,4.43
2022-10-20T02:04:38.211Z,6.30
2022-10-20T02:07:16.185Z,5.32
2022-10-20T02:12:30.668Z,4.43
2022-10-20T02:14:59.738Z,7.13
2022-10-20T02:17:29.053Z,9.82
2022-10-20T02:19:58.264Z,8.68
2022-10-20T02:22:27.738Z,9.23
2022-10-20T02:24:55.241Z,5.68
2022-10-20T02:27:30.539Z,7.90
2022-10-20T02:30:02.617Z,7.80
2022-10-20T02:32:31.977Z,5.72
2022-10-20T02:35:03.494Z,6.65
2022-10-20T02:37:34.563Z,13.77
2022-10-20T02:40:02.921Z,7.68
2022-10-20T02:42:30.364Z,8.18
2022-10-20T02:44:57.803Z,10.23
2022-10-20T02:47:25.283Z,4.70
2022-10-20T02:49:52.718Z,5.65
2022-10-20T02:52:20.185Z,6.10
2022-10-20T02:54:48.250Z,12.30
2022-10-20T02:57:15.848Z,4.88
2022-10-20T02:59:43.284Z,7.25
2022-10-20T03:02:10.726Z,7.78
2022-10-20T03:04:38.231Z,7.28
2022-10-20T03:07:05.849Z,7.03
2022-10-20T03:09:33.349Z,6.97
2022-10-20T03:12:00.856Z,9.90
2022-10-20T03:14:28.317Z,9.38
2022-10-20T03:16:55.773Z,7.75
2022-10-20T03:19:23.314Z,11.25
2022-10-20T03:21:50.801Z,9.68
2022-10-20T03:24:18.381Z,9.73
2022-10-20T03:26:45.816Z,5.03
2022-10-20T03:29:13.299Z,6.80
2022-10-20T03:31:41.065Z,6.25
2022-10-20T03:34:08.771Z,9.18
2022-10-20T03:36:36.253Z,8.63
2022-10-20T03:39:03.845Z,7.15
2022-10-20T03:41:31.306Z,6.13
2022-10-20T03:43:58.780Z,13.40
2022-10-20T03:46:26.332Z,7.47
2022-10-20T03:48:53.824Z,4.30
2022-10-20T03:51:21.448Z,6.82
2022-10-20T03:53:49.009Z,7.20
2022-10-20T03:56:18.644Z,4.30
2022-10-20T03:58:46.823Z,9.43
2022-10-20T04:01:20.035Z,7.97
2022-10-20T04:03:47.611Z,7.72
2022-10-20T04:06:15.960Z,8.80
2022-10-20T04:08:43.497Z,7.47
2022-10-20T04:11:11.001Z,3.85
2022-10-20T04:13:38.735Z,9.40
2022-10-20T04:16:06.499Z,8.32
2022-10-20T04:18:33.996Z,7.95
2022-10-20T04:21:01.414Z,7.35
2022-10-20T04:23:28.881Z,8.63
2022-10-20T04:25:56.311Z,7.38
2022-10-20T04:28:23.871Z,12.30
2022-10-20T04:30:51.327Z,4.07
2022-10-20T04:33:18.796Z,7.90
2022-10-20T04:35:46.300Z,7.07
2022-10-20T04:38:13.828Z,7.93
2022-10-20T04:40:41.360Z,13.05
2022-10-20T04:43:08.842Z,9.32
2022-10-20T04:45:36.922Z,10.55
2022-10-20T04:48:05.657Z,7.40
2022-10-20T04:50:33.088Z,10.77
2022-10-20T04:53:08.297Z,10.00
2022-10-20T04:55:37.388Z,7.18
2022-10-20T04:58:04.890Z,8.63
2022-10-20T05:00:32.412Z,9.68
2022-10-20T05:02:59.872Z,11.23
2022-10-20T05:05:27.441Z,12.48
2022-10-20T05:07:54.912Z,12.95
2022-10-20T05:10:22.417Z,7.30
2022-10-20T05:12:49.863Z,12.43
2022-10-20T05:15:17.402Z,9.57
2022-10-20T05:17:44.801Z,9.45
2022-10-20T05:20:12.288Z,11.15
2022-10-20T05:22:39.940Z,11.73
2022-10-20T05:25:31.221Z,10.07
2022-10-20T05:27:55.359Z,12.23
2022-10-20T05:30:22.757Z,9.88
2022-10-20T05:32:50.232Z,9.40
2022-10-20T05:35:17.685Z,11.85
2022-10-20T05:37:45.153Z,13.95
2022-10-20T05:40:12.993Z,11.23
2022-10-20T05:42:40.681Z,15.15
2022-10-20T05:45:09.081Z,12.23
2022-10-20T05:47:36.649Z,12.20
2022-10-20T05:50:04.564Z,8.45
2022-10-20T05:52:32.038Z,15.35
2022-10-20T05:54:59.638Z,6.93
2022-10-20T05:57:27.154Z,8.55
2022-10-20T05:59:54.555Z,13.15
2022-10-20T06:02:22.319Z,11.35
2022-10-20T06:04:49.774Z,14.43
2022-10-20T06:07:17.335Z,15.02
2022-10-20T06:09:44.800Z,15.23
2022-10-20T06:12:12.284Z,11.38
2022-10-20T06:14:39.728Z,14.40
2022-10-20T06:17:07.169Z,8.88
2022-10-20T06:19:34.660Z,11.00
2022-10-20T06:22:05.537Z,11.80
2022-10-20T06:24:34.680Z,12.75
2022-10-20T06:27:02.246Z,11.38
2022-10-20T06:29:29.726Z,9.85
2022-10-20T06:31:57.230Z,12.52
2022-10-20T06:34:26.076Z,11.88
2022-10-20T06:36:53.631Z,12.35
2022-10-20T06:39:23.552Z,14.20
2022-10-20T06:41:53.612Z,16.35
2022-10-20T06:44:23.704Z,17.85
2022-10-20T06:46:54.812Z,10.68
2022-10-20T06:49:22.655Z,11.00
2022-10-20T06:51:50.416Z,15.93
2022-10-20T06:54:18.120Z,12.32
2022-10-20T06:56:45.646Z,13.70
2022-10-20T06:59:13.145Z,7.65
2022-10-20T07:01:40.806Z,20.67
2022-10-20T07:04:14.834Z,14.18
2022-10-20T07:06:44.556Z,10.70
2022-10-20T07:09:18.524Z,20.33
2022-10-20T07:11:50.184Z,18.77
2022-10-20T07:14:17.642Z,8.98
2022-10-20T07:16:45.155Z,14.35
2022-10-20T07:19:12.754Z,12.60
2022-10-20T07:21:42.958Z,11.48
2022-10-20T07:24:13.251Z,8.40
2022-10-20T07:26:41.992Z,15.32
2022-10-20T07:29:10.212Z,12.63
2022-10-20T07:31:44.002Z,13.77
2022-10-20T07:34:25.035Z,13.00
2022-10-20T07:36:53.993Z,12.60
2022-10-20T07:39:21.768Z,15.18
2022-10-20T07:41:49.527Z,11.07
2022-10-20T07:44:17.693Z,19.50
2022-10-20T07:46:45.577Z,16.10
2022-10-20T07:52:00.853Z,13.18
2022-10-20T07:54:28.310Z,16.35
2022-10-20T07:56:55.794Z,19.02
2022-10-20T07:59:24.479Z,18.60
2022-10-20T08:01:55.989Z,15.20
2022-10-20T08:04:26.336Z,24.88
2022-10-20T08:06:53.986Z,21.77
2022-10-20T08:09:21.607Z,17.23
2022-10-20T08:11:52.765Z,11.50
2022-10-20T08:14:27.208Z,18.30
2022-10-20T08:17:01.397Z,17.42
2022-10-20T08:22:10.733Z,20.85
2022-10-20T08:24:38.192Z,19.05
2022-10-20T08:27:05.689Z,14.13
2022-10-20T08:29:33.377Z,16.45
2022-10-20T08:32:00.979Z,10.85
2022-10-20T08:34:28.371Z,15.90
2022-10-20T08:36:55.834Z,15.88
2022-10-20T08:39:23.894Z,8.30
2022-10-20T08:42:08.117Z,13.93
2022-10-20T08:44:38.237Z,9.52
2022-10-20T08:47:16.462Z,18.30
2022-10-20T08:49:46.023Z,14.15
2022-10-20T08:52:16.871Z,10.85
2022-10-20T08:54:44.549Z,11.85
2022-10-20T08:57:28.595Z,16.63
2022-10-20T09:00:05.730Z,18.52
2022-10-20T09:02:35.930Z,14.57
2022-10-20T09:05:06.466Z,20.05
2022-10-20T09:07:39.464Z,18.70
2022-10-20T09:10:29.647Z,16.45
2022-10-20T09:12:58.430Z,19.73
2022-10-20T09:15:27.227Z,13.60
2022-10-20T09:17:56.930Z,15.85
2022-10-20T09:20:27.292Z,18.35
2022-10-20T09:22:54.840Z,10.93
2022-10-20T09:25:25.328Z,15.30
2022-10-20T09:27:53.741Z,13.60
2022-10-20T09:30:36.126Z,19.90
2022-10-20T09:33:28.794Z,19.52
2022-10-20T09:36:05.735Z,15.90
2022-10-20T09:38:35.230Z,11.35
2022-10-20T09:41:23.312Z,20.55
2022-10-20T09:43:57.242Z,19.45
2022-10-20T09:46:35.159Z,8.82
2022-10-20T09:49:22.712Z,14.98
2022-10-20T09:54:26.343Z,21.23
2022-10-20T09:56:54.257Z,12.85
2022-10-20T09:59:31.916Z,10.25
2022-10-20T10:02:01.774Z,16.95
2022-10-20T10:04:35.448Z,11.82
2022-10-20T10:07:04.913Z,10.40
2022-10-20T10:09:36.006Z,17.05
2022-10-20T10:12:12.679Z,14.57
2022-10-20T10:14:54.618Z,13.63
2022-10-20T10:17:39.249Z,12.52
2022-10-20T10:20:12.783Z,18.60
2022-10-20T10:22:41.205Z,19.42
2022-10-20T10:25:18.304Z,12.02
2022-10-20T10:31:09.951Z,9.18
2022-10-20T10:33:37.378Z,9.68
2022-10-20T10:36:26.756Z,19.40
2022-10-20T10:38:54.564Z,14.15
2022-10-20T10:41:51.338Z,17.58
2022-10-20T10:44:28.085Z,15.30
2022-10-20T10:47:14.811Z,14.10
2022-10-20T10:50:14.556Z,14.77
2022-10-20T10:53:06.898Z,15.73
2022-10-20T10:55:48.985Z,10.95
2022-10-20T10:58:30.929Z,13.75
2022-10-20T11:01:12.581Z,14.82
2022-10-20T11:04:03.866Z,16.85
2022-10-20T11:06:40.543Z,28.42
2022-10-20T11:09:31.943Z,22.75
2022-10-20T11:12:12.466Z,14.40
2022-10-20T11:15:06.388Z,17.77
2022-10-20T11:17:54.331Z,11.07
2022-10-20T11:20:50.711Z,14.30
2022-10-20T11:23:44.891Z,20.73
2022-10-20T11:26:12.286Z,14.27
2022-10-20T11:28:44.852Z,19.40
2022-10-20T11:31:54.779Z,13.07
2022-10-20T11:34:36.062Z,13.93
2022-10-20T11:37:31.735Z,20.50
2022-10-20T11:40:23.918Z,12.13
2022-10-20T11:43:23.643Z,13.02
2022-10-20T11:45:54.615Z,14.93
2022-10-20T11:48:42.305Z,11.40
2022-10-20T11:51:28.388Z,13.55
2022-10-20T11:54:04.597Z,11.38
2022-10-20T11:57:06.876Z,16.77
2022-10-20T11:59:52.248Z,16.38
2022-10-20T12:02:53.138Z,17.08
2022-10-20T12:05:41.688Z,15.73
2022-10-20T12:08:30.781Z,12.52
2022-10-20T12:11:04.455Z,15.80
2022-10-20T12:13:47.581Z,10.15
2022-10-20T12:16:58.303Z,10.55
2022-10-20T12:19:34.269Z,11.02
2022-10-20T12:22:14.048Z,16.73
2022-10-20T12:25:01.432Z,12.52
2022-10-20T12:27:29.655Z,10.65
2022-10-20T12:30:00.105Z,14.20
2022-10-20T12:33:09.219Z,18.80
2022-10-20T12:35:58.637Z,13.32
2022-10-20T12:38:27.443Z,11.05
2022-10-20T12:41:00.286Z,18.50
2022-10-20T12:43:49.424Z,15.00
2022-10-20T12:46:21.934Z,15.65
2022-10-20T12:48:56.762Z,13.70
2022-10-20T12:51:47.634Z,15.30
2022-10-20T12:54:25.501Z,15.27
2022-10-20T12:56:57.972Z,13.30
2022-10-20T12:59:31.299Z,14.10
2022-10-20T13:02:11.000Z,16.73
2022-10-20T13:05:00.373Z,11.15
2022-10-20T13:07:46.367Z,11.75
2022-10-20T13:10:31.496Z,12.10
2022-10-20T13:13:01.909Z,11.50
2022-10-20T13:15:37.946Z,21.48
2022-10-20T13:18:43.465Z,19.52
2022-10-20T13:21:33.250Z,14.85
2022-10-20T13:24:16.116Z,9.15
2022-10-20T13:26:43.571Z,19.02
2022-10-20T13:29:18.424Z,14.13
2022-10-20T13:32:16.330Z,13.07
2022-10-20T13:35:07.317Z,13.10
2022-10-20T13:37:57.004Z,14.77
2022-10-20T13:40:56.996Z,14.82
2022-10-20T13:43:29.459Z,15.35
2022-10-20T13:46:08.878Z,12.93
2022-10-20T13:48:55.199Z,10.90
2022-10-20T13:51:32.433Z,16.00
2022-10-20T13:54:06.346Z,17.27
2022-10-20T13:56:38.259Z,13.85
2022-10-20T14:02:03.846Z,16.25
2022-10-20T14:04:34.107Z,16.25
2022-10-20T14:07:13.265Z,14.90
2022-10-20T14:09:45.371Z,19.15
2022-10-20T14:12:25.316Z,12.18
2022-10-20T14:15:01.454Z,16.92
2022-10-20T14:17:29.483Z,11.90
2022-10-20T14:20:21.425Z,12.55
2022-10-20T14:22:49.592Z,13.90
2022-10-20T14:25:17.671Z,16.67
2022-10-20T14:27:45.388Z,16.48
2022-10-20T14:30:16.358Z,14.27
2022-10-20T14:32:45.311Z,16.17
2022-10-20T14:35:24.894Z,14.27
2022-10-20T14:37:59.793Z,14.48
2022-10-20T14:40:34.202Z,12.63
2022-10-20T14:43:15.894Z,17.88
2022-10-20T14:45:56.672Z,17.73
2022-10-20T14:48:28.774Z,17.45
2022-10-20T14:50:56.329Z,7.90
2022-10-20T14:53:27.284Z,13.55
2022-10-20T14:55:56.386Z,9.80
2022-10-20T14:58:37.033Z,17.52
2022-10-20T15:01:23.078Z,14.25
2022-10-20T15:04:30.002Z,14.63
2022-10-20T15:07:15.587Z,24.90
2022-10-20T15:09:46.273Z,11.77
2022-10-20T15:12:38.442Z,12.45
2022-10-20T15:15:12.264Z,14.02
2022-10-20T15:17:48.345Z,9.30
2022-10-20T15:23:13.503Z,19.48
2022-10-20T15:25:43.637Z,11.52
2022-10-20T15:28:25.976Z,14.57
2022-10-20T15:30:53.719Z,10.95
2022-10-20T15:33:21.421Z,20.15
2022-10-20T15:35:48.960Z,12.00
2022-10-20T15:38:16.531Z,18.10
2022-10-20T15:40:45.390Z,12.55
2022-10-20T15:43:14.768Z,8.93
2022-10-20T15:45:46.225Z,12.65
2022-10-20T15:48:13.763Z,17.10
2022-10-20T15:50:41.745Z,14.57
2022-10-20T15:53:12.049Z,13.40
2022-10-20T15:55:42.559Z,20.90
2022-10-20T15:58:10.073Z,15.30
2022-10-20T16:00:37.805Z,15.38
2022-10-20T16:03:06.453Z,17.85
2022-10-20T16:05:34.229Z,15.57
2022-10-20T16:08:02.517Z,15.20
2022-10-20T16:10:30.096Z,20.25
2022-10-20T16:12:58.126Z,16.92
2022-10-20T16:15:30.299Z,16.95
2022-10-20T16:17:59.291Z,13.00
2022-10-20T16:20:27.075Z,10.65
2022-10-20T16:22:54.611Z,9.40
2022-10-20T16:25:22.076Z,10.60
2022-10-20T16:27:49.551Z,14.73
2022-10-20T16:30:17.209Z,15.98
2022-10-20T16:32:44.689Z,13.68
2022-10-20T16:35:12.240Z,22.02
2022-10-20T16:37:39.884Z,10.75
2022-10-20T16:40:07.924Z,19.25
2022-10-20T16:42:35.440Z,15.27
2022-10-20T16:45:03.001Z,14.32
2022-10-20T16:47:30.575Z,21.05
2022-10-20T16:49:58.059Z,30.75
2022-10-20T16:52:25.623Z,16.17
2022-10-20T16:54:53.059Z,10.73
2022-10-20T16:57:20.694Z,23.17
2022-10-20T16:59:50.880Z,19.65
2022-10-20T17:02:19.236Z,15.45
2022-10-20T17:04:50.161Z,14.48
2022-10-20T17:07:17.993Z,16.33
2022-10-20T17:09:45.778Z,16.95
2022-10-20T17:12:13.249Z,14.85
2022-10-20T17:14:41.018Z,33.83
2022-10-20T17:17:08.797Z,21.83
2022-10-20T17:19:36.227Z,29.95
2022-10-20T17:22:03.802Z,20.58
2022-10-20T17:24:31.316Z,15.98
2022-10-20T17:26:58.839Z,16.52
2022-10-20T17:29:26.460Z,21.90
2022-10-20T17:31:54.061Z,25.13
2022-10-20T17:34:22.956Z,18.73
2022-10-20T17:36:50.613Z,18.52
2022-10-20T17:39:18.067Z,22.17
2022-10-20T17:41:46.911Z,14.13
2022-10-20T17:44:14.359Z,15.32
2022-10-20T17:46:43.347Z,17.98
2022-10-20T17:49:10.815Z,18.17
2022-10-20T17:51:38.478Z,12.70
2022-10-20T17:54:06.151Z,15.35
2022-10-20T17:56:36.084Z,22.65
2022-10-20T17:59:05.627Z,18.67
2022-10-20T18:01:35.910Z,11.48
2022-10-20T18:04:09.573Z,18.92
2022-10-20T18:06:38.258Z,19.45
2022-10-20T18:09:10.819Z,17.33
2022-10-20T18:11:40.197Z,17.40
2022-10-20T18:14:08.100Z,19.02
2022-10-20T18:16:38.043Z,13.18
2022-10-20T18:19:07.292Z,12.82
2022-10-20T18:21:34.770Z,19.13
2022-10-20T18:24:05.261Z,17.10
2022-10-20T18:26:35.134Z,16.80
2022-10-20T18:29:04.578Z,9.45
2022-10-20T18:31:34.194Z,16.15
2022-10-20T18:34:06.851Z,13.55
2022-10-20T18:36:39.114Z,14.73
2022-10-20T18:39:10.731Z,23.50
2022-10-20T18:41:40.301Z,14.43
2022-10-20T18:44:14.323Z,21.52
2022-10-20T18:46:42.062Z,13.35
2022-10-20T18:49:13.826Z,24.48
2022-10-20T18:51:41.518Z,18.90
2022-10-20T18:54:09.571Z,12.20
2022-10-20T18:56:37.482Z,17.48
2022-10-20T18:59:09.804Z,17.83
2022-10-20T19:01:38.948Z,18.30
2022-10-20T19:04:08.457Z,15.45
2022-10-20T19:06:44.107Z,18.40
2022-10-20T19:09:19.921Z,13.93
2022-10-20T19:14:21.528Z,25.98
2022-10-20T19:16:49.860Z,19.35
2022-10-20T19:19:17.494Z,18.55
2022-10-20T19:21:45.165Z,13.20
2022-10-20T19:24:23.844Z,19.63
2022-10-20T19:27:24.427Z,15.52
2022-10-20T19:29:42.384Z,28.20
2022-10-20T19:32:11.417Z,26.55
2022-10-20T19:34:40.222Z,20.10
2022-10-20T19:37:09.107Z,17.35
2022-10-20T19:39:39.624Z,20.90
2022-10-20T19:42:08.075Z,21.77
2022-10-20T19:44:35.733Z,31.52
2022-10-20T19:47:05.164Z,13.13
2022-10-20T19:49:33.286Z,21.23
2022-10-20T19:52:02.008Z,18.27
2022-10-20T19:54:29.551Z,21.60
2022-10-20T19:56:57.101Z,17.70
2022-10-20T19:59:25.573Z,21.50
2022-10-20T20:01:53.031Z,25.77
2022-10-20T20:04:21.103Z,19.02
2022-10-20T20:06:48.681Z,16.00
2022-10-20T20:09:16.544Z,21.15
2022-10-20T20:11:44.639Z,22.17
2022-10-20T20:14:17.596Z,23.50
2022-10-20T20:16:46.571Z,24.88
2022-10-20T20:19:15.843Z,22.38
2022-10-20T20:21:43.351Z,23.40
2022-10-20T20:24:12.746Z,20.42
2022-10-20T20:26:40.304Z,28.92
2022-10-20T20:29:07.896Z,25.77
2022-10-20T20:31:35.425Z,21.13
2022-10-20T20:34:03.199Z,22.70
2022-10-20T20:36:30.746Z,27.20
2022-10-20T20:38:59.746Z,16.20
2022-10-20T20:41:30.199Z,21.17
2022-10-20T20:43:57.955Z,18.23
2022-10-20T20:46:29.287Z,19.40
2022-10-20T20:48:59.295Z,14.15
2022-10-20T20:51:28.998Z,21.70
2022-10-20T20:53:56.568Z,23.80
2022-10-20T20:56:26.847Z,17.55
2022-10-20T20:58:55.635Z,18.05
2022-10-20T21:01:24.264Z,16.38
2022-10-20T21:04:00.264Z,21.83
2022-10-20T21:06:33.889Z,18.75
2022-10-20T21:09:10.591Z,21.42
2022-10-20T21:11:38.093Z,17.40
2022-10-20T21:14:05.512Z,28.63
2022-10-20T21:16:35.880Z,19.92
2022-10-20T21:19:06.408Z,22.55
2022-10-20T21:21:47.154Z,23.27
2022-10-20T21:24:14.728Z,14.88
2022-10-20T21:26:42.187Z,17.65
2022-10-20T21:29:10.484Z,13.60
2022-10-20T21:31:40.070Z,24.80
2022-10-20T21:34:07.586Z,18.83
2022-10-20T21:36:36.473Z,23.15
2022-10-20T21:39:06.538Z,18.65
2022-10-20T21:41:35.606Z,22.08
2022-10-20T21:44:06.291Z,17.30
2022-10-20T21:46:39.713Z,17.55
2022-10-20T21:49:11.173Z,15.32
2022-10-20T21:51:41.476Z,21.15
2022-10-20T21:54:16.028Z,19.88
2022-10-20T21:56:47.244Z,24.73
2022-10-20T21:59:22.551Z,21.63
2022-10-20T22:01:51.354Z,22.95
2022-10-20T22:04:20.536Z,34.28
2022-10-20T22:06:48.358Z,27.55
2022-10-20T22:09:16.608Z,23.10
2022-10-20T22:11:49.026Z,18.85
2022-10-20T22:14:16.703Z,22.48
2022-10-20T22:16:44.227Z,18.00
2022-10-20T22:19:21.392Z,21.98
2022-10-20T22:21:50.503Z,17.73
2022-10-20T22:24:19.224Z,22.95
2022-10-20T22:26:47.811Z,29.65
2022-10-20T22:29:15.264Z,17.38
2022-10-20T22:31:42.908Z,29.58
2022-10-20T22:34:11.218Z,17.25
2022-10-20T22:36:39.709Z,24.33
2022-10-20T22:39:08.537Z,26.17
2022-10-20T22:41:36.686Z,35.72
2022-10-20T22:44:04.742Z,23.65
2022-10-20T22:46:32.498Z,26.70
2022-10-20T22:48:59.901Z,28.52
2022-10-20T22:51:27.515Z,19.65
2022-10-20T22:53:54.930Z,20.40
2022-10-20T22:56:23.618Z,24.45
2022-10-20T22:58:53.288Z,27.33
2022-10-20T23:01:22.703Z,28.00
2022-10-20T23:03:50.833Z,23.23
2022-10-20T23:06:24.349Z,15.07
2022-10-20T23:08:55.418Z,30.52
2022-10-20T23:11:23.168Z,21.42
2022-10-20T23:13:51.246Z,26.88
2022-10-20T23:16:18.985Z,33.22
2022-10-20T23:18:47.328Z,35.78
2022-10-20T23:21:15.555Z,22.50
2022-10-20T23:23:43.376Z,25.83
2022-10-20T23:26:11.692Z,26.25
2022-10-20T23:28:39.338Z,32.15
2022-10-20T23:31:07.125Z,26.17
2022-10-20T23:33:35.271Z,20.60
2022-10-20T23:36:03.155Z,23.63
2022-10-20T23:38:30.920Z,20.73
2022-10-20T23:40:58.383Z,26.73
2022-10-20T23:43:25.891Z,36.88
2022-10-20T23:45:53.479Z,38.13
2022-10-20T23:48:21.002Z,17.85
2022-10-20T23:50:48.568Z,22.60
2022-10-20T23:53:16.071Z,31.15
2022-10-20T23:55:43.772Z,33.97
2022-10-20T23:58:11.654Z,22.65
